createdAt,value
2017-11-24T00:00:46.259Z,20.20
2017-11-24T00:01:51.408Z,20.20
2017-11-24T00:02:56.703Z,20.20
2017-11-24T00:04:02.393Z,20.20
2017-11-24T00:05:07.484Z,20.20
2017-11-24T00:06:12.406Z,20.20
2017-11-24T00:07:17.532Z,20.20
2017-11-24T00:08:22.708Z,20.20
2017-11-24T00:09:27.788Z,20.20
2017-11-24T00:10:33.276Z,20.20
2017-11-24T00:11:38.667Z,20.20
2017-11-24T00:12:43.884Z,20.20
2017-11-24T00:13:49.217Z,20.20
2017-11-24T00:14:54.439Z,20.20
2017-11-24T00:15:59.481Z,20.10
2017-11-24T00:17:04.756Z,20.20
2017-11-24T00:18:10.108Z,20.20
2017-11-24T00:19:15.256Z,20.10
2017-11-24T00:20:20.814Z,20.20
2017-11-24T00:21:25.861Z,20.10
2017-11-24T00:22:32.285Z,20.20
2017-11-24T00:23:37.443Z,20.10
2017-11-24T00:24:42.211Z,20.10
2017-11-24T00:25:47.737Z,20.20
2017-11-24T00:26:52.955Z,20.10
2017-11-24T00:27:58.081Z,20.10
2017-11-24T00:29:03.357Z,20.20
2017-11-24T00:30:08.277Z,20.10
2017-11-24T00:31:13.359Z,20.10
2017-11-24T00:32:18.366Z,20.10
2017-11-24T00:33:23.394Z,20.10
2017-11-24T00:34:28.336Z,20.10
2017-11-24T00:35:33.325Z,20.10
2017-11-24T00:36:39.132Z,20.20
2017-11-24T00:37:44.742Z,20.10
2017-11-24T00:38:49.345Z,20.10
2017-11-24T00:39:54.103Z,20.10
2017-11-24T00:40:58.812Z,20.20
2017-11-24T00:42:04.272Z,20.20
2017-11-24T00:43:08.988Z,20.10
2017-11-24T00:44:13.850Z,20.10
2017-11-24T00:45:18.735Z,20.10
2017-11-24T00:46:23.544Z,20.10
2017-11-24T00:47:28.395Z,20.10
2017-11-24T00:48:33.139Z,20.10
2017-11-24T00:49:37.697Z,20.10
2017-11-24T00:50:42.405Z,20.10
2017-11-24T00:51:47.337Z,20.10
2017-11-24T00:52:52.093Z,20.10
2017-11-24T00:53:56.953Z,20.10
2017-11-24T00:55:01.733Z,20.10
2017-11-24T00:56:07.267Z,20.10
2017-11-24T00:57:12.514Z,20.10
2017-11-24T00:58:17.419Z,20.10
2017-11-24T00:59:22.387Z,20.10
2017-11-24T01:00:26.982Z,20.10
2017-11-24T01:01:32.260Z,20.00
2017-11-24T01:02:37.002Z,20.00
2017-11-24T01:03:42.418Z,20.00
2017-11-24T01:04:47.038Z,20.00
2017-11-24T01:05:51.892Z,20.10
2017-11-24T01:06:56.573Z,20.10
2017-11-24T01:08:01.362Z,20.10
2017-11-24T01:09:06.106Z,20.00
2017-11-24T01:10:10.720Z,20.00
2017-11-24T01:11:15.714Z,20.10
2017-11-24T01:12:20.428Z,20.00
2017-11-24T01:13:24.984Z,20.10
2017-11-24T01:14:29.694Z,20.00
2017-11-24T01:15:34.311Z,20.00
2017-11-24T01:16:39.296Z,20.00
2017-11-24T01:17:44.054Z,20.10
2017-11-24T01:18:48.574Z,20.10
2017-11-24T01:19:53.323Z,20.00
2017-11-24T01:20:58.213Z,20.10
2017-11-24T01:22:03.299Z,20.00
2017-11-24T01:23:07.989Z,20.00
2017-11-24T01:24:12.779Z,20.00
2017-11-24T01:25:17.362Z,20.00
2017-11-24T01:26:21.978Z,20.00
2017-11-24T01:27:26.726Z,20.00
2017-11-24T01:28:31.518Z,20.00
2017-11-24T01:29:36.173Z,20.10
2017-11-24T01:30:40.731Z,20.10
2017-11-24T01:31:45.473Z,20.00
2017-11-24T01:32:50.214Z,20.00
2017-11-24T01:33:54.885Z,20.00
2017-11-24T01:34:59.766Z,20.00
2017-11-24T01:36:04.542Z,20.00
2017-11-24T01:37:09.404Z,20.00
2017-11-24T01:38:14.236Z,20.10
2017-11-24T01:39:19.096Z,20.00
2017-11-24T01:40:23.785Z,20.10
2017-11-24T01:41:40.429Z,20.00
2017-11-24T01:42:45.145Z,20.00
2017-11-24T01:43:49.878Z,20.00
2017-11-24T01:44:55.162Z,20.00
2017-11-24T01:45:59.933Z,20.00
2017-11-24T01:47:04.588Z,20.00
2017-11-24T01:48:09.976Z,20.00
2017-11-24T01:49:14.760Z,20.00
2017-11-24T01:50:19.496Z,20.00
2017-11-24T01:51:24.181Z,20.00
2017-11-24T01:52:29.028Z,20.00
2017-11-24T01:53:33.661Z,20.00
2017-11-24T01:54:38.829Z,20.00
2017-11-24T01:55:43.428Z,20.00
2017-11-24T01:56:48.317Z,20.00
2017-11-24T01:57:52.882Z,20.00
2017-11-24T01:58:57.751Z,20.00
2017-11-24T02:00:02.496Z,20.00
2017-11-24T02:01:07.360Z,20.00
2017-11-24T02:02:12.028Z,20.10
2017-11-24T02:03:16.751Z,20.00
2017-11-24T02:04:22.351Z,20.00
2017-11-24T02:05:27.132Z,20.10
2017-11-24T02:06:31.873Z,20.00
2017-11-24T02:07:36.677Z,20.00
2017-11-24T02:08:41.276Z,20.00
2017-11-24T02:09:46.078Z,20.00
2017-11-24T02:10:50.811Z,20.00
2017-11-24T02:11:55.414Z,20.10
2017-11-24T02:13:00.207Z,20.00
2017-11-24T02:14:05.179Z,20.00
2017-11-24T02:15:09.964Z,20.00
2017-11-24T02:16:14.823Z,20.00
2017-11-24T02:17:19.450Z,20.00
2017-11-24T02:18:24.184Z,20.00
2017-11-24T02:19:28.861Z,20.10
2017-11-24T02:20:33.682Z,20.00
2017-11-24T02:21:38.411Z,20.10
2017-11-24T02:22:43.098Z,20.10
2017-11-24T02:23:47.664Z,20.00
2017-11-24T02:24:52.350Z,20.00
2017-11-24T02:25:57.043Z,20.00
2017-11-24T02:27:02.539Z,20.00
2017-11-24T02:28:07.171Z,20.00
2017-11-24T02:29:11.819Z,20.00
2017-11-24T02:30:16.560Z,20.00
2017-11-24T02:31:21.439Z,20.00
2017-11-24T02:32:26.315Z,20.00
2017-11-24T02:33:31.171Z,20.00
2017-11-24T02:34:35.980Z,20.00
2017-11-24T02:35:40.798Z,20.00
2017-11-24T02:36:45.501Z,20.00
2017-11-24T02:37:50.106Z,20.00
2017-11-24T02:38:54.965Z,20.00
2017-11-24T02:39:59.681Z,20.00
2017-11-24T02:41:04.375Z,20.00
2017-11-24T02:42:09.020Z,20.00
2017-11-24T02:43:13.932Z,20.00
2017-11-24T02:44:18.662Z,20.00
2017-11-24T02:45:23.392Z,20.00
2017-11-24T02:46:28.252Z,20.00
2017-11-24T02:47:32.889Z,20.00
2017-11-24T02:48:37.678Z,20.00
2017-11-24T02:49:42.576Z,20.00
2017-11-24T02:50:47.249Z,20.00
2017-11-24T02:51:51.802Z,20.00
2017-11-24T02:52:56.530Z,20.00
2017-11-24T02:54:01.365Z,20.00
2017-11-24T02:55:06.132Z,20.00
2017-11-24T02:56:10.938Z,20.00
2017-11-24T02:57:15.510Z,20.00
2017-11-24T02:58:20.181Z,20.00
2017-11-24T02:59:25.667Z,20.00
2017-11-24T03:00:30.330Z,20.00
2017-11-24T03:01:34.864Z,20.00
2017-11-24T03:02:39.554Z,20.00
2017-11-24T03:03:44.452Z,20.00
2017-11-24T03:04:49.163Z,20.00
2017-11-24T03:05:54.063Z,20.00
2017-11-24T03:06:58.746Z,20.00
2017-11-24T03:08:03.488Z,20.00
2017-11-24T03:09:08.273Z,20.00
2017-11-24T03:10:12.850Z,20.00
2017-11-24T03:11:17.534Z,20.00
2017-11-24T03:12:22.225Z,20.00
2017-11-24T03:13:27.126Z,20.00
2017-11-24T03:14:31.909Z,20.00
2017-11-24T03:15:36.724Z,20.00
2017-11-24T03:16:42.075Z,20.00
2017-11-24T03:17:46.937Z,20.00
2017-11-24T03:18:51.636Z,20.00
2017-11-24T03:19:56.169Z,20.00
2017-11-24T03:21:00.894Z,20.10
2017-11-24T03:22:05.588Z,20.00
2017-11-24T03:23:10.464Z,20.00
2017-11-24T03:24:15.589Z,20.00
2017-11-24T03:25:20.349Z,20.00
2017-11-24T03:26:25.129Z,20.00
2017-11-24T03:27:29.952Z,20.00
2017-11-24T03:28:34.627Z,20.00
2017-11-24T03:29:39.472Z,20.00
2017-11-24T03:30:44.164Z,20.00
2017-11-24T03:31:49.059Z,20.00
2017-11-24T03:32:53.769Z,20.00
2017-11-24T03:33:58.318Z,20.00
2017-11-24T03:35:03.102Z,20.00
2017-11-24T03:36:07.759Z,20.00
2017-11-24T03:37:12.639Z,20.00
2017-11-24T03:38:17.173Z,20.00
2017-11-24T03:39:21.910Z,20.00
2017-11-24T03:40:26.705Z,20.00
2017-11-24T03:41:31.359Z,20.00
2017-11-24T03:42:36.241Z,20.00
2017-11-24T03:43:40.915Z,20.00
2017-11-24T03:44:45.630Z,20.00
2017-11-24T03:45:50.528Z,20.00
2017-11-24T03:46:55.227Z,20.00
2017-11-24T03:47:59.913Z,20.00
2017-11-24T03:49:04.883Z,20.00
2017-11-24T03:50:09.593Z,20.00
2017-11-24T03:51:14.422Z,20.00
2017-11-24T03:52:19.268Z,20.00
2017-11-24T03:53:24.181Z,20.00
2017-11-24T03:54:28.893Z,20.00
2017-11-24T03:55:33.681Z,20.00
2017-11-24T03:56:38.213Z,20.00
2017-11-24T03:57:43.006Z,20.00
2017-11-24T03:58:47.887Z,20.00
2017-11-24T03:59:52.599Z,20.00
2017-11-24T04:00:57.114Z,20.00
2017-11-24T04:02:01.845Z,20.00
2017-11-24T04:03:06.552Z,20.00
2017-11-24T04:04:11.376Z,20.00
2017-11-24T04:05:16.090Z,20.00
2017-11-24T04:06:21.037Z,20.00
2017-11-24T04:07:25.810Z,20.00
2017-11-24T04:08:30.674Z,20.00
2017-11-24T04:09:35.424Z,20.00
2017-11-24T04:10:40.334Z,20.00
2017-11-24T04:11:45.196Z,20.00
2017-11-24T04:12:49.955Z,20.00
2017-11-24T04:13:54.520Z,20.00
2017-11-24T04:14:59.111Z,20.00
2017-11-24T04:16:03.769Z,20.00
2017-11-24T04:17:08.610Z,20.00
2017-11-24T04:18:13.972Z,20.00
2017-11-24T04:19:18.508Z,20.00
2017-11-24T04:20:23.145Z,20.00
2017-11-24T04:21:27.994Z,20.00
2017-11-24T04:22:32.687Z,20.00
2017-11-24T04:23:37.546Z,20.00
2017-11-24T04:24:42.280Z,20.00
2017-11-24T04:25:46.983Z,20.00
2017-11-24T04:26:51.587Z,20.00
2017-11-24T04:27:56.292Z,20.00
2017-11-24T04:29:00.973Z,20.00
2017-11-24T04:30:05.746Z,20.00
2017-11-24T04:31:10.518Z,20.00
2017-11-24T04:32:15.313Z,20.00
2017-11-24T04:33:20.218Z,20.00
2017-11-24T04:34:25.332Z,20.00
2017-11-24T04:35:30.372Z,20.00
2017-11-24T04:36:35.960Z,20.00
2017-11-24T04:37:41.767Z,20.00
2017-11-24T04:38:46.757Z,20.00
2017-11-24T04:39:52.103Z,20.20
2017-11-24T04:40:57.057Z,20.00
2017-11-24T04:42:02.150Z,20.10
2017-11-24T04:43:07.446Z,20.00
2017-11-24T04:44:13.107Z,20.10
2017-11-24T04:45:18.042Z,20.10
2017-11-24T04:46:22.995Z,20.10
2017-11-24T04:47:28.100Z,20.10
2017-11-24T04:48:32.919Z,20.10
2017-11-24T04:49:37.917Z,20.10
2017-11-24T04:50:42.716Z,20.10
2017-11-24T04:51:47.838Z,20.10
2017-11-24T04:52:52.875Z,20.10
2017-11-24T04:53:57.812Z,20.10
2017-11-24T04:55:02.966Z,20.10
2017-11-24T04:56:08.167Z,20.10
2017-11-24T04:57:13.177Z,20.10
2017-11-24T04:58:18.335Z,20.10
2017-11-24T04:59:23.057Z,20.10
2017-11-24T05:00:28.280Z,20.10
2017-11-24T05:01:34.509Z,20.10
2017-11-24T05:02:39.765Z,20.10
2017-11-24T05:03:44.749Z,20.10
2017-11-24T05:04:49.741Z,20.10
2017-11-24T05:05:54.925Z,20.10
2017-11-24T05:07:00.066Z,20.10
2017-11-24T05:08:04.893Z,20.10
2017-11-24T05:09:09.971Z,20.10
2017-11-24T05:10:14.894Z,20.10
2017-11-24T05:11:19.761Z,20.00
2017-11-24T05:12:24.944Z,20.10
2017-11-24T05:13:30.067Z,20.10
2017-11-24T05:14:35.150Z,20.10
2017-11-24T05:15:40.368Z,20.10
2017-11-24T05:16:45.659Z,20.10
2017-11-24T05:17:51.005Z,20.10
2017-11-24T05:18:56.069Z,20.10
2017-11-24T05:20:01.610Z,20.10
2017-11-24T05:21:06.810Z,20.10
2017-11-24T05:22:11.979Z,20.10
2017-11-24T05:23:17.230Z,20.10
2017-11-24T05:24:22.262Z,20.10
2017-11-24T05:25:27.515Z,20.10
2017-11-24T05:26:32.652Z,20.10
2017-11-24T05:27:37.683Z,20.10
2017-11-24T05:28:42.689Z,20.10
2017-11-24T05:29:47.692Z,20.10
2017-11-24T05:30:52.981Z,20.10
2017-11-24T05:31:57.916Z,20.10
2017-11-24T05:33:03.297Z,20.10
2017-11-24T05:34:08.511Z,20.10
2017-11-24T05:35:13.844Z,20.10
2017-11-24T05:36:19.512Z,20.10
2017-11-24T05:37:24.660Z,20.10
2017-11-24T05:38:29.742Z,20.10
2017-11-24T05:39:34.552Z,20.10
2017-11-24T05:40:39.476Z,20.10
2017-11-24T05:41:44.572Z,20.20
2017-11-24T05:42:49.565Z,20.10
2017-11-24T05:43:54.648Z,20.20
2017-11-24T05:44:59.741Z,20.20
2017-11-24T05:46:04.683Z,20.10
2017-11-24T05:47:09.785Z,20.10
2017-11-24T05:48:14.880Z,20.20
2017-11-24T05:49:20.188Z,20.20
2017-11-24T05:50:25.367Z,20.20
2017-11-24T05:51:30.525Z,20.10
2017-11-24T05:52:35.504Z,20.10
2017-11-24T05:53:41.764Z,20.10
2017-11-24T05:54:46.876Z,20.10
2017-11-24T05:55:51.659Z,20.10
2017-11-24T05:56:56.697Z,20.10
2017-11-24T05:58:01.534Z,20.10
2017-11-24T05:59:06.437Z,20.20
2017-11-24T06:00:12.325Z,20.10
2017-11-24T06:01:17.551Z,20.10
2017-11-24T06:02:22.781Z,20.10
2017-11-24T06:03:27.900Z,20.20
2017-11-24T06:04:32.861Z,20.10
2017-11-24T06:05:38.220Z,20.10
2017-11-24T06:06:43.387Z,20.10
2017-11-24T06:07:48.387Z,20.10
2017-11-24T06:08:53.941Z,20.10
2017-11-24T06:09:59.254Z,20.00
2017-11-24T06:11:06.353Z,20.10
2017-11-24T06:12:11.658Z,20.00
2017-11-24T06:13:16.586Z,20.00
2017-11-24T06:14:21.488Z,20.00
2017-11-24T06:15:26.512Z,20.00
2017-11-24T06:16:31.479Z,20.10
2017-11-24T06:17:36.640Z,20.00
2017-11-24T06:18:41.622Z,20.00
2017-11-24T06:19:46.827Z,20.10
2017-11-24T06:20:52.028Z,20.10
2017-11-24T06:21:57.306Z,20.10
2017-11-24T06:23:02.296Z,20.10
2017-11-24T06:24:07.292Z,20.10
2017-11-24T06:25:12.171Z,19.90
2017-11-24T06:26:17.108Z,19.80
2017-11-24T06:27:22.035Z,19.60
2017-11-24T06:28:27.156Z,19.50
2017-11-24T06:29:32.167Z,19.40
2017-11-24T06:30:36.873Z,19.30
2017-11-24T06:31:41.726Z,19.20
2017-11-24T06:32:46.490Z,19.20
2017-11-24T06:33:51.613Z,19.10
2017-11-24T06:34:56.666Z,19.00
2017-11-24T06:36:01.975Z,19.00
2017-11-24T06:37:07.237Z,19.00
2017-11-24T06:38:12.364Z,19.00
2017-11-24T06:39:17.780Z,19.00
2017-11-24T06:40:23.168Z,18.90
2017-11-24T06:41:29.510Z,18.90
2017-11-24T06:42:34.492Z,19.00
2017-11-24T06:43:39.458Z,19.00
2017-11-24T06:44:44.634Z,19.00
2017-11-24T06:45:52.361Z,19.10
2017-11-24T06:46:57.543Z,19.10
2017-11-24T06:48:03.189Z,19.20
2017-11-24T06:49:08.226Z,19.20
2017-11-24T06:50:13.918Z,19.30
2017-11-24T06:51:19.197Z,19.40
2017-11-24T06:52:24.345Z,19.50
2017-11-24T06:53:30.528Z,19.50
2017-11-24T06:54:36.383Z,19.50
2017-11-24T06:55:41.266Z,19.50
2017-11-24T06:56:46.380Z,19.60
2017-11-24T06:57:51.391Z,19.60
2017-11-24T06:58:56.647Z,19.60
2017-11-24T07:00:02.008Z,19.70
2017-11-24T07:01:08.731Z,19.70
2017-11-24T07:02:14.965Z,19.80
2017-11-24T07:03:20.096Z,19.80
2017-11-24T07:04:25.446Z,19.80
2017-11-24T07:05:30.371Z,19.80
2017-11-24T07:06:35.277Z,19.80
2017-11-24T07:07:40.377Z,19.80
2017-11-24T07:08:45.655Z,19.70
2017-11-24T07:09:51.537Z,19.70
2017-11-24T07:10:56.849Z,19.70
2017-11-24T07:12:02.258Z,19.80
2017-11-24T07:13:07.265Z,19.70
2017-11-24T07:14:12.512Z,19.70
2017-11-24T07:15:17.726Z,19.70
2017-11-24T07:16:22.832Z,19.70
2017-11-24T07:17:27.623Z,19.70
2017-11-24T07:18:32.661Z,19.70
2017-11-24T07:19:37.536Z,19.80
2017-11-24T07:20:42.504Z,19.80
2017-11-24T07:21:49.014Z,19.80
2017-11-24T07:22:54.084Z,19.80
2017-11-24T07:23:59.103Z,19.80
2017-11-24T07:25:04.191Z,19.80
2017-11-24T07:26:09.603Z,19.80
2017-11-24T07:27:14.600Z,19.80
2017-11-24T07:28:20.172Z,19.80
2017-11-24T07:29:26.140Z,19.80
2017-11-24T07:30:31.526Z,19.90
2017-11-24T07:31:36.566Z,19.90
2017-11-24T07:32:41.765Z,19.90
2017-11-24T07:33:46.937Z,19.90
2017-11-24T07:34:53.162Z,20.00
2017-11-24T07:35:58.430Z,20.00
2017-11-24T07:37:03.624Z,20.00
2017-11-24T07:38:08.808Z,20.00
2017-11-24T07:39:14.453Z,20.00
2017-11-24T07:40:19.605Z,20.00
2017-11-24T07:41:25.297Z,20.00
2017-11-24T07:42:32.248Z,20.00
2017-11-24T07:43:38.190Z,20.00
2017-11-24T07:44:43.343Z,20.00
2017-11-24T07:45:48.385Z,20.10
2017-11-24T07:46:53.674Z,20.00
2017-11-24T07:47:58.797Z,20.10
2017-11-24T07:49:04.004Z,20.10
2017-11-24T07:50:08.985Z,20.10
2017-11-24T07:51:13.693Z,20.00
2017-11-24T07:52:18.897Z,20.10
2017-11-24T07:53:23.730Z,20.10
2017-11-24T07:54:28.635Z,20.10
2017-11-24T07:55:33.477Z,20.10
2017-11-24T07:56:38.338Z,20.10
2017-11-24T07:57:43.260Z,20.00
2017-11-24T07:58:47.995Z,20.00
2017-11-24T07:59:52.924Z,19.90
2017-11-24T08:00:57.758Z,19.90
2017-11-24T08:02:02.688Z,19.90
2017-11-24T08:03:07.580Z,19.90
2017-11-24T08:04:12.651Z,19.80
2017-11-24T08:05:17.653Z,19.80
2017-11-24T08:06:22.493Z,19.80
2017-11-24T08:07:27.453Z,19.80
2017-11-24T08:08:32.444Z,19.80
2017-11-24T08:09:37.466Z,19.80
2017-11-24T08:10:42.373Z,19.80
2017-11-24T08:11:47.208Z,19.80
2017-11-24T08:12:52.133Z,19.80
2017-11-24T08:13:57.105Z,19.80
2017-11-24T08:15:02.056Z,19.80
2017-11-24T08:16:06.913Z,19.80
2017-11-24T08:17:11.746Z,19.80
2017-11-24T08:18:16.628Z,19.80
2017-11-24T08:19:21.335Z,19.80
2017-11-24T08:20:26.558Z,19.80
2017-11-24T08:21:31.540Z,19.70
2017-11-24T08:22:36.423Z,19.70
2017-11-24T08:23:41.292Z,19.90
2017-11-24T08:24:46.057Z,19.70
2017-11-24T08:25:50.933Z,19.80
2017-11-24T08:26:55.899Z,19.80
2017-11-24T08:28:00.619Z,19.80
2017-11-24T08:29:05.635Z,19.70
2017-11-24T08:30:10.385Z,19.70
2017-11-24T08:31:15.377Z,19.70
2017-11-24T08:32:20.445Z,19.70
2017-11-24T08:33:25.344Z,19.70
2017-11-24T08:34:30.296Z,19.70
2017-11-24T08:35:35.447Z,19.80
2017-11-24T08:36:40.283Z,19.80
2017-11-24T08:37:45.152Z,19.70
2017-11-24T08:38:50.104Z,19.80
2017-11-24T08:39:55.122Z,19.80
2017-11-24T08:40:59.898Z,19.80
2017-11-24T08:42:04.800Z,19.80
2017-11-24T08:43:09.699Z,19.70
2017-11-24T08:44:14.751Z,19.70
2017-11-24T08:45:19.681Z,19.70
2017-11-24T08:46:24.587Z,19.70
2017-11-24T08:47:29.451Z,19.70
2017-11-24T08:48:34.495Z,19.70
2017-11-24T08:49:39.466Z,19.70
2017-11-24T08:50:44.306Z,19.80
2017-11-24T08:51:49.330Z,19.70
2017-11-24T08:52:54.211Z,19.70
2017-11-24T08:54:01.900Z,19.70
2017-11-24T08:55:06.900Z,19.70
2017-11-24T08:56:11.924Z,19.70
2017-11-24T08:57:16.928Z,19.70
2017-11-24T08:58:21.963Z,19.70
2017-11-24T08:59:26.686Z,19.70
2017-11-24T09:00:31.569Z,19.70
2017-11-24T09:01:36.286Z,19.70
2017-11-24T09:02:41.317Z,19.70
2017-11-24T09:03:46.188Z,19.80
2017-11-24T09:04:51.049Z,19.80
2017-11-24T09:05:56.088Z,19.80
2017-11-24T09:07:01.072Z,19.80
2017-11-24T09:08:06.076Z,19.80
2017-11-24T09:09:10.967Z,19.80
2017-11-24T09:10:15.942Z,19.80
2017-11-24T09:11:20.913Z,19.80
2017-11-24T09:12:25.952Z,19.80
2017-11-24T09:13:30.918Z,19.80
2017-11-24T09:14:35.872Z,19.80
2017-11-24T09:15:40.769Z,19.80
2017-11-24T09:16:45.691Z,19.80
2017-11-24T09:17:50.526Z,19.80
2017-11-24T09:18:55.318Z,19.80
2017-11-24T09:20:00.469Z,19.80
2017-11-24T09:21:05.357Z,19.70
2017-11-24T09:22:10.030Z,19.70
2017-11-24T09:23:15.055Z,19.70
2017-11-24T09:24:20.055Z,19.70
2017-11-24T09:25:24.854Z,19.70
2017-11-24T09:26:29.906Z,19.70
2017-11-24T09:27:35.110Z,19.70
2017-11-24T09:28:39.911Z,19.70
2017-11-24T09:29:44.856Z,19.70
2017-11-24T09:30:49.824Z,19.70
2017-11-24T09:31:54.669Z,19.70
2017-11-24T09:32:59.409Z,19.70
2017-11-24T09:34:04.483Z,19.70
2017-11-24T09:35:09.324Z,19.70
2017-11-24T09:36:14.211Z,19.70
2017-11-24T09:37:19.240Z,19.70
2017-11-24T09:38:24.186Z,19.70
2017-11-24T09:39:29.132Z,19.70
2017-11-24T09:40:34.054Z,19.80
2017-11-24T09:41:38.903Z,19.70
2017-11-24T09:42:44.683Z,19.80
2017-11-24T09:43:49.804Z,19.80
2017-11-24T09:44:54.910Z,19.80
2017-11-24T09:45:59.803Z,19.80
2017-11-24T09:47:04.929Z,19.80
2017-11-24T09:48:09.678Z,19.80
2017-11-24T09:49:14.664Z,19.80
2017-11-24T09:50:19.531Z,19.80
2017-11-24T09:51:24.242Z,19.70
2017-11-24T09:52:29.501Z,19.80
2017-11-24T09:53:34.541Z,19.70
2017-11-24T09:54:39.990Z,19.70
2017-11-24T09:55:44.823Z,19.70
2017-11-24T09:56:49.923Z,19.70
2017-11-24T09:57:55.323Z,19.70
2017-11-24T09:59:00.341Z,19.70
2017-11-24T10:00:05.649Z,19.70
2017-11-24T10:01:10.652Z,19.70
2017-11-24T10:02:15.773Z,19.70
2017-11-24T10:03:20.664Z,19.70
2017-11-24T10:04:26.025Z,19.60
2017-11-24T10:05:31.351Z,19.70
2017-11-24T10:06:36.622Z,19.70
2017-11-24T10:07:41.896Z,19.70
2017-11-24T10:08:47.326Z,19.70
2017-11-24T10:09:52.474Z,19.70
2017-11-24T10:10:57.370Z,19.70
2017-11-24T10:12:02.542Z,19.70
2017-11-24T10:13:07.771Z,19.70
2017-11-24T10:14:12.777Z,19.70
2017-11-24T10:15:17.588Z,19.70
2017-11-24T10:16:22.610Z,19.70
2017-11-24T10:17:28.386Z,19.70
2017-11-24T10:18:33.394Z,19.70
2017-11-24T10:19:38.619Z,19.70
2017-11-24T10:20:43.571Z,19.70
2017-11-24T10:21:48.972Z,19.70
2017-11-24T10:22:53.905Z,19.70
2017-11-24T10:23:58.881Z,19.70
2017-11-24T10:25:03.843Z,19.70
2017-11-24T10:26:10.021Z,19.70
2017-11-24T10:27:15.240Z,19.70
2017-11-24T10:28:20.760Z,19.70
2017-11-24T10:29:26.351Z,19.70
2017-11-24T10:30:31.293Z,19.70
2017-11-24T10:31:36.485Z,19.70
2017-11-24T10:32:41.649Z,19.70
2017-11-24T10:33:47.077Z,19.70
2017-11-24T10:34:52.759Z,19.70
2017-11-24T10:35:57.769Z,19.70
2017-11-24T10:37:03.389Z,19.70
2017-11-24T10:38:08.594Z,19.70
2017-11-24T10:39:13.675Z,19.70
2017-11-24T10:40:19.186Z,19.70
2017-11-24T10:41:24.507Z,19.70
2017-11-24T10:42:30.086Z,19.70
2017-11-24T10:43:35.316Z,19.70
2017-11-24T10:44:41.937Z,19.70
2017-11-24T10:45:48.114Z,19.70
2017-11-24T10:46:53.316Z,19.70
2017-11-24T10:47:58.476Z,19.70
2017-11-24T10:49:04.157Z,19.70
2017-11-24T10:50:09.763Z,19.70
2017-11-24T10:51:15.063Z,19.70
2017-11-24T10:52:20.428Z,19.70
2017-11-24T10:53:25.623Z,19.70
2017-11-24T10:54:30.646Z,19.70
2017-11-24T10:55:35.656Z,19.70
2017-11-24T10:56:40.998Z,19.70
2017-11-24T10:57:46.460Z,19.70
2017-11-24T10:58:52.219Z,19.70
2017-11-24T10:59:57.569Z,19.70
2017-11-24T11:01:02.732Z,19.80
2017-11-24T11:02:07.661Z,19.80
2017-11-24T11:03:12.739Z,19.90
2017-11-24T11:04:18.237Z,19.90
2017-11-24T11:05:23.441Z,19.80
2017-11-24T11:06:28.529Z,19.80
2017-11-24T11:07:33.677Z,19.80
2017-11-24T11:08:38.705Z,19.80
2017-11-24T11:09:43.815Z,19.70
2017-11-24T11:10:48.951Z,19.70
2017-11-24T11:11:53.955Z,19.70
2017-11-24T11:12:58.949Z,19.70
2017-11-24T11:14:03.956Z,19.70
2017-11-24T11:15:08.803Z,19.70
2017-11-24T11:16:13.873Z,19.70
2017-11-24T11:17:19.018Z,19.70
2017-11-24T11:18:24.083Z,19.70
2017-11-24T11:19:29.345Z,19.70
2017-11-24T11:20:34.224Z,19.70
2017-11-24T11:21:39.248Z,19.70
2017-11-24T11:22:44.684Z,19.70
2017-11-24T11:23:50.162Z,19.70
2017-11-24T11:24:55.199Z,19.60
2017-11-24T11:26:00.304Z,19.70
2017-11-24T11:27:05.243Z,19.70
2017-11-24T11:28:10.360Z,19.70
2017-11-24T11:29:15.564Z,19.70
2017-11-24T11:30:20.676Z,19.70
2017-11-24T11:31:25.838Z,19.70
2017-11-24T11:32:30.779Z,19.70
2017-11-24T11:33:36.260Z,19.70
2017-11-24T11:34:41.203Z,19.70
2017-11-24T11:35:46.012Z,19.70
2017-11-24T11:36:50.999Z,19.70
2017-11-24T11:37:56.009Z,19.70
2017-11-24T11:39:01.382Z,19.70
2017-11-24T11:40:06.325Z,19.70
2017-11-24T11:41:11.222Z,19.70
2017-11-24T11:42:16.223Z,19.60
2017-11-24T11:43:21.121Z,19.60
2017-11-24T11:44:26.307Z,19.70
2017-11-24T11:45:31.452Z,19.70
2017-11-24T11:46:36.973Z,19.70
2017-11-24T11:47:41.969Z,19.70
2017-11-24T11:48:47.186Z,19.70
2017-11-24T11:49:52.100Z,19.70
2017-11-24T11:50:57.229Z,19.70
2017-11-24T11:52:02.185Z,19.70
2017-11-24T11:53:07.178Z,19.70
2017-11-24T11:54:12.063Z,19.70
2017-11-24T11:55:16.886Z,19.70
2017-11-24T11:56:21.800Z,19.70
2017-11-24T11:57:26.845Z,19.70
2017-11-24T11:58:31.915Z,19.70
2017-11-24T11:59:36.949Z,19.70
2017-11-24T12:00:41.885Z,19.70
2017-11-24T12:01:46.815Z,19.70
2017-11-24T12:02:52.215Z,19.70
2017-11-24T12:03:57.028Z,19.70
2017-11-24T12:05:01.907Z,19.70
2017-11-24T12:06:06.855Z,19.70
2017-11-24T12:07:11.825Z,19.70
2017-11-24T12:08:16.762Z,19.70
2017-11-24T12:09:21.751Z,19.70
2017-11-24T12:10:26.944Z,19.70
2017-11-24T12:11:32.084Z,19.70
2017-11-24T12:12:37.162Z,19.70
2017-11-24T12:13:42.350Z,19.70
2017-11-24T12:14:47.522Z,19.70
2017-11-24T12:15:52.426Z,19.70
2017-11-24T12:16:57.446Z,19.70
2017-11-24T12:18:02.463Z,19.70
2017-11-24T12:19:07.267Z,19.70
2017-11-24T12:20:12.510Z,19.70
2017-11-24T12:21:17.394Z,19.70
2017-11-24T12:22:22.883Z,19.70
2017-11-24T12:23:28.362Z,19.70
2017-11-24T12:24:33.629Z,19.80
2017-11-24T12:25:38.730Z,19.70
2017-11-24T12:26:44.152Z,19.80
2017-11-24T12:27:49.558Z,19.80
2017-11-24T12:28:55.377Z,19.80
2017-11-24T12:30:00.787Z,19.80
2017-11-24T12:31:06.906Z,19.80
2017-11-24T12:32:11.785Z,19.80
2017-11-24T12:33:16.956Z,19.80
2017-11-24T12:34:24.596Z,19.80
2017-11-24T12:35:30.133Z,19.80
2017-11-24T12:36:35.958Z,19.80
2017-11-24T12:37:41.687Z,19.80
2017-11-24T12:38:46.880Z,19.90
2017-11-24T12:39:52.033Z,19.80
2017-11-24T12:40:58.608Z,19.80
2017-11-24T12:42:03.679Z,19.90
2017-11-24T12:43:09.077Z,19.90
2017-11-24T12:44:14.221Z,19.90
2017-11-24T12:45:19.415Z,19.90
2017-11-24T12:46:24.617Z,19.90
2017-11-24T12:47:29.794Z,20.00
2017-11-24T12:48:35.079Z,19.90
2017-11-24T12:49:40.444Z,20.00
2017-11-24T12:50:45.901Z,19.90
2017-11-24T12:51:51.103Z,20.00
2017-11-24T12:52:56.629Z,20.00
2017-11-24T12:54:02.246Z,19.90
2017-11-24T12:55:07.264Z,20.10
2017-11-24T12:56:13.228Z,20.00
2017-11-24T12:57:18.462Z,20.00
2017-11-24T12:58:24.086Z,20.00
2017-11-24T12:59:30.554Z,20.00
2017-11-24T13:00:36.076Z,20.00
2017-11-24T13:01:41.739Z,20.00
2017-11-24T13:02:47.607Z,20.00
2017-11-24T13:03:53.048Z,20.00
2017-11-24T13:04:58.385Z,20.00
2017-11-24T13:06:03.764Z,20.00
2017-11-24T13:07:09.253Z,20.00
2017-11-24T13:08:14.679Z,20.00
2017-11-24T13:09:20.094Z,20.00
2017-11-24T13:10:25.549Z,20.00
2017-11-24T13:11:30.853Z,20.00
2017-11-24T13:12:36.297Z,20.00
2017-11-24T13:13:41.697Z,20.00
2017-11-24T13:14:48.398Z,20.00
2017-11-24T13:15:53.795Z,20.00
2017-11-24T13:16:59.225Z,20.00
2017-11-24T13:18:04.865Z,20.00
2017-11-24T13:19:10.497Z,20.00
2017-11-24T13:20:16.511Z,20.00
2017-11-24T13:21:21.870Z,20.00
2017-11-24T13:22:27.169Z,20.00
2017-11-24T13:23:32.382Z,20.10
2017-11-24T13:24:37.515Z,20.10
2017-11-24T13:25:42.919Z,20.10
2017-11-24T13:26:48.537Z,20.10
2017-11-24T13:27:53.977Z,20.10
2017-11-24T13:29:00.155Z,20.10
2017-11-24T13:30:05.557Z,20.10
2017-11-24T13:31:11.446Z,20.10
2017-11-24T13:32:16.782Z,20.20
2017-11-24T13:33:22.910Z,20.10
2017-11-24T13:34:28.200Z,20.10
2017-11-24T13:35:34.803Z,20.10
2017-11-24T13:36:40.655Z,20.10
2017-11-24T13:37:45.868Z,20.10
2017-11-24T13:38:51.217Z,20.10
2017-11-24T13:39:57.030Z,20.10
2017-11-24T13:41:02.949Z,20.10
2017-11-24T13:42:08.248Z,20.10
2017-11-24T13:43:14.378Z,20.10
2017-11-24T13:44:19.632Z,20.10
2017-11-24T13:45:32.863Z,20.10
2017-11-24T13:46:50.115Z,20.10
2017-11-24T13:47:56.043Z,20.10
2017-11-24T13:49:01.477Z,20.20
2017-11-24T13:50:06.963Z,20.20
2017-11-24T13:51:13.906Z,20.20
2017-11-24T13:52:19.243Z,20.20
2017-11-24T13:53:24.867Z,20.20
2017-11-24T13:54:30.351Z,20.20
2017-11-24T13:55:35.581Z,20.20
2017-11-24T13:56:41.015Z,20.20
2017-11-24T13:57:46.586Z,20.20
2017-11-24T13:58:52.269Z,20.20